Time;durP1;ratioP1;P1;durP2;ratioP2;P2;SDS_P1;SDS_P2;PMS_P1;PMS_P2;Temp;Humidity;BMP_temperature;BMP_pressure;BME280_temperature;BME280_humidity;BME280_pressure;Samples;Min_cycle;Max_cycle;Signal;HPM_P1;HPM_P2
2022/07/12 00:01:26;;;;;;;;;2.00;2.00;;;;;27.06;41.32;101561.13;5036224;28;45254;-59
2022/07/12 00:03:51;;;;;;;;;1.25;1.25;;;;;26.72;41.44;101511.47;5035570;28;45726;-59
2022/07/12 00:06:17;;;;;;;;;1.25;1.25;;;;;27.03;41.36;101564.56;5036138;28;45398;-59
2022/07/12 00:08:42;;;;;;;;;2.00;2.00;;;;;26.90;41.59;101549.22;5035794;28;45284;-59
2022/07/12 00:11:09;;;;;;;;;4.50;2.00;;;;;26.71;41.83;101515.44;5035586;28;45431;-59
2022/07/12 00:13:34;;;;;;;;;3.40;3.40;;;;;26.92;41.46;101549.78;5035704;28;46077;-59
2022/07/12 00:16:00;;;;;;;;;3.00;3.00;;;;;26.86;41.71;101545.34;5035512;28;45435;-57
2022/07/12 00:18:25;;;;;;;;;2.25;2.25;;;;;26.80;41.67;101558.63;5035286;28;45397;-58
2022/07/12 00:20:50;;;;;;;;;2.00;2.00;;;;;26.78;41.81;101548.81;5035440;28;45844;-60
2022/07/12 00:23:16;;;;;;;;;2.25;1.25;;;;;26.39;41.97;101500.94;5033802;28;46175;-58
2022/07/12 00:25:42;;;;;;;;;2.00;2.00;;;;;26.70;42.09;101541.06;5050750;28;45783;-60
2022/07/12 00:28:08;;;;;;;;;3.00;2.00;;;;;26.70;41.84;101539.09;5033931;28;45329;-57
2022/07/12 00:30:33;;;;;;;;;3.00;3.00;;;;;26.76;42.00;101568.00;5035569;28;45444;-58
2022/07/12 00:32:59;;;;;;;;;3.00;3.00;;;;;26.55;42.23;101525.22;5050547;28;46315;-59
2022/07/12 00:35:24;;;;;;;;;3.00;3.00;;;;;26.66;42.24;101550.13;5035058;28;45245;-56
2022/07/12 00:37:50;;;;;;;;;1.00;1.00;;;;;26.64;42.22;101555.19;5022891;28;45238;-60
2022/07/12 00:40:15;;;;;;;;;2.50;2.25;;;;;26.61;42.23;101549.34;5050902;28;45358;-57
2022/07/12 00:42:41;;;;;;;;;2.75;2.75;;;;;26.44;42.32;101542.25;5034964;28;46205;-60
2022/07/12 00:45:07;;;;;;;;;2.00;2.00;;;;;26.53;42.50;101550.88;5033464;28;45276;-55
2022/07/12 00:47:40;;;;;;;;;5.00;4.00;;;;;26.54;42.41;101544.09;5035087;28;45376;-58
2022/07/12 00:50:14;;;;;;;;;2.00;2.00;;;;;26.40;42.45;101532.72;5033864;28;45350;-59
2022/07/12 00:52:40;;;;;;;;;1.20;1.20;;;;;26.42;42.76;101540.88;5050322;28;46348;-60
2022/07/12 00:55:06;;;;;;;;;2.00;2.00;;;;;26.42;42.92;101540.88;5034638;28;45234;-58
2022/07/12 00:57:32;;;;;;;;;2.00;2.00;;;;;26.47;42.69;101543.63;5033693;28;45317;-60
2022/07/12 00:59:58;;;;;;;;;2.00;2.00;;;;;26.45;42.46;101540.25;5050849;28;45923;-57
2022/07/12 01:02:24;;;;;;;;;4.00;2.75;;;;;26.45;42.80;101537.44;5033608;28;45778;-59
2022/07/12 01:04:50;;;;;;;;;3.00;3.00;;;;;26.43;43.02;101543.41;5033491;28;45467;-60
2022/07/12 01:07:16;;;;;;;;;3.00;3.00;;;;;26.38;43.10;101541.50;5050505;28;45459;-57
2022/07/12 01:09:41;;;;;;;;;2.00;2.00;;;;;26.33;43.16;101537.88;5034631;28;45473;-60
2022/07/12 01:12:07;;;;;;;;;3.00;3.00;;;;;26.30;42.97;101532.88;5034590;28;46341;-59
2022/07/12 01:14:33;;;;;;;;;2.75;1.75;;;;;26.18;42.91;101522.84;5050225;28;45512;-59
2022/07/12 01:16:59;;;;;;;;;4.20;2.80;;;;;26.20;43.34;101542.25;5033014;28;45383;-58
2022/07/12 01:19:24;;;;;;;;;2.00;2.00;;;;;26.24;43.10;101540.50;5033431;28;45587;-59
2022/07/12 01:21:50;;;;;;;;;2.25;2.25;;;;;26.23;43.10;101541.66;5034413;28;45391;-57
2022/07/12 01:24:15;;;;;;;;;2.00;2.00;;;;;26.19;43.27;101543.38;5033647;28;45317;-56
2022/07/12 01:26:41;;;;;;;;;5.00;4.00;;;;;26.19;43.16;101532.13;5033161;28;45357;-60
2022/07/12 01:29:06;;;;;;;;;4.25;4.25;;;;;26.17;43.68;101548.44;5033278;28;45450;-58
2022/07/12 01:31:34;;;;;;;;;3.00;3.00;;;;;25.94;43.60;101512.41;5049790;28;46046;-59
2022/07/12 01:33:59;;;;;;;;;1.80;1.80;;;;;26.05;43.57;101530.03;5033420;28;45325;-57
2022/07/12 01:36:25;;;;;;;;;2.00;2.00;;;;;26.14;43.69;101529.38;5037985;28;45283;-60
2022/07/12 01:38:50;;;;;;;;;3.25;2.00;;;;;26.01;43.74;101505.59;5038287;28;45215;-60
2022/07/12 01:41:16;;;;;;;;;4.50;3.50;;;;;25.96;43.39;101503.69;5037508;28;45576;-58
2022/07/12 01:43:42;;;;;;;;;4.50;4.00;;;;;26.03;43.72;101515.41;5036156;28;45415;-58
2022/07/12 01:46:07;;;;;;;;;2.00;2.00;;;;;26.07;43.61;101522.13;5037769;28;45301;-60
2022/07/12 01:48:32;;;;;;;;;2.00;2.00;;;;;25.99;43.83;101517.16;5036709;28;45580;-60
2022/07/12 01:50:58;;;;;;;;;3.50;2.75;;;;;25.94;43.80;101515.22;5037227;28;45409;-60
2022/07/12 01:53:23;;;;;;;;;2.00;2.00;;;;;25.85;43.80;101498.19;5035802;28;45302;-60
2022/07/12 01:55:49;;;;;;;;;2.25;2.25;;;;;26.02;44.23;101533.44;5037454;28;45234;-60
2022/07/12 01:58:14;;;;;;;;;2.75;2.75;;;;;25.96;44.24;101535.47;5037590;28;45516;-60
2022/07/12 02:00:40;;;;;;;;;3.00;3.00;;;;;25.93;44.21;101532.41;5035764;28;45513;-60
2022/07/12 02:03:05;;;;;;;;;3.00;3.00;;;;;25.90;44.12;101531.03;5031973;28;45719;-60
2022/07/12 02:05:31;;;;;;;;;4.00;3.00;;;;;25.71;44.11;101500.88;5036221;28;45732;-57
2022/07/12 02:07:56;;;;;;;;;2.00;2.00;;;;;25.69;44.41;101507.91;5033901;28;45357;-58
2022/07/12 02:10:22;;;;;;;;;2.50;2.50;;;;;25.84;44.09;101520.97;5034068;28;46344;-60
2022/07/12 02:12:47;;;;;;;;;4.00;2.25;;;;;25.84;44.26;101533.03;5037118;28;45479;-60
2022/07/12 02:15:13;;;;;;;;;3.00;3.00;;;;;25.82;44.63;101532.50;5037420;28;45472;-60
2022/07/12 02:17:38;;;;;;;;;3.75;2.00;;;;;25.70;44.40;101532.06;5052842;28;45456;-60
2022/07/12 02:20:05;;;;;;;;;2.75;2.75;;;;;25.70;44.85;101534.88;5035731;28;46298;-60
2022/07/12 02:22:30;;;;;;;;;2.40;2.40;;;;;25.66;44.80;101540.25;5036800;28;45336;-60
2022/07/12 02:24:56;;;;;;;;;3.50;3.50;;;;;25.62;44.51;101532.72;5035935;28;45516;-60
2022/07/12 02:27:21;;;;;;;;;2.75;2.75;;;;;25.52;45.07;101539.25;5036947;28;45395;-60
2022/07/12 02:29:46;;;;;;;;;3.00;3.00;;;;;25.44;45.02;101524.69;5069041;28;45482;-60
2022/07/12 02:32:13;;;;;;;;;3.25;3.25;;;;;25.44;44.92;101524.69;5052327;28;45443;-60
2022/07/12 02:34:39;;;;;;;;;3.00;2.20;;;;;25.40;45.19;101528.41;5036858;28;45239;-60
2022/07/12 02:37:04;;;;;;;;;2.50;2.50;;;;;25.23;45.29;101495.94;5037123;28;45348;-60
2022/07/12 02:39:30;;;;;;;;;3.00;3.00;;;;;25.48;44.96;101533.38;5036773;28;46847;-60
2022/07/12 02:41:55;;;;;;;;;2.50;2.50;;;;;25.37;45.26;101524.19;5035242;28;45282;-59
2022/07/12 02:44:21;;;;;;;;;4.00;3.00;;;;;25.39;45.29;101515.50;5036743;28;45282;-60
2022/07/12 02:46:46;;;;;;;;;3.75;3.75;;;;;25.47;45.23;101531.69;5035485;28;45465;-60
2022/07/12 02:49:11;;;;;;;;;3.25;3.25;;;;;25.37;45.59;101532.63;5036767;28;46639;-60
2022/07/12 02:51:37;;;;;;;;;4.25;4.25;;;;;25.39;45.44;101533.16;5035271;28;45227;-59
2022/07/12 02:54:03;;;;;;;;;2.25;2.25;;;;;25.41;45.14;101532.88;5036807;28;45359;-60
2022/07/12 02:56:28;;;;;;;;;4.00;3.00;;;;;25.30;45.24;101523.69;5037109;28;45357;-59
2022/07/12 02:58:54;;;;;;;;;3.00;3.00;;;;;25.38;45.54;101539.91;5036739;28;46335;-60
2022/07/12 03:01:19;;;;;;;;;4.00;3.75;;;;;25.43;45.12;101541.84;5036231;28;45309;-61
2022/07/12 03:03:45;;;;;;;;;5.25;4.25;;;;;25.23;45.55;101515.59;5036857;28;45482;-60
2022/07/12 03:06:12;;;;;;;;;3.00;3.00;;;;;25.38;45.48;101548.34;5036951;28;45424;-61
2022/07/12 03:08:38;;;;;;;;;3.80;3.80;;;;;25.38;45.11;101544.69;5036093;28;45641;-60
2022/07/12 03:11:03;;;;;;;;;3.00;3.00;;;;;25.37;45.23;101541.06;5036213;28;45195;-60
2022/07/12 03:13:29;;;;;;;;;4.00;4.00;;;;;25.31;45.58;101545.03;5036600;28;45303;-61
2022/07/12 03:15:54;;;;;;;;;3.25;3.25;;;;;25.29;45.45;101545.31;5035193;28;45227;-60
2022/07/12 03:18:20;;;;;;;;;3.25;3.25;;;;;25.31;45.39;101545.84;5035824;28;46421;-60
2022/07/12 03:20:45;;;;;;;;;3.25;3.25;;;;;25.39;45.90;101549.19;5036108;28;45372;-60
2022/07/12 03:23:10;;;;;;;;;5.25;5.25;;;;;25.33;45.62;101550.38;5036219;28;45647;-59
2022/07/12 03:25:36;;;;;;;;;3.00;3.00;;;;;25.29;45.24;101545.31;5007336;28;45634;-59
2022/07/12 03:28:01;;;;;;;;;6.50;3.75;;;;;25.09;45.79;101511.78;5041862;28;45770;-60
2022/07/12 03:30:27;;;;;;;;;5.00;3.50;;;;;25.28;45.73;101535.22;5055937;28;45300;-61
2022/07/12 03:32:52;;;;;;;;;4.50;4.00;;;;;25.24;45.38;101538.91;5054532;28;45414;-59
2022/07/12 03:35:19;;;;;;;;;3.00;3.00;;;;;25.35;45.15;101542.47;5056193;28;45323;-61
2022/07/12 03:37:51;;;;;;;;;3.80;3.80;;;;;25.36;45.50;101544.16;5054500;28;45507;-60
2022/07/12 03:40:18;;;;;;;;;2.80;2.80;;;;;25.42;45.09;101548.59;5054726;28;45247;-61
2022/07/12 03:42:43;;;;;;;;;4.60;4.60;;;;;25.40;45.31;101557.31;5054896;28;45271;-60
2022/07/12 03:45:10;;;;;;;;;3.25;3.25;;;;;25.39;45.35;101540.78;5055028;28;45318;-59
2022/07/12 03:47:35;;;;;;;;;3.20;3.20;;;;;25.22;45.55;101543.97;5054405;28;46029;-60
2022/07/12 03:50:04;;;;;;;;;3.50;3.50;;;;;25.14;45.68;101540.66;5055801;28;45510;-60
2022/07/12 03:52:30;;;;;;;;;4.00;4.00;;;;;25.29;45.36;101556.56;5054836;28;45259;-60
2022/07/12 03:54:56;;;;;;;;;4.50;4.50;;;;;25.12;45.37;101540.13;5055341;28;46032;-61
2022/07/12 03:57:21;;;;;;;;;3.00;3.00;;;;;25.21;45.93;101554.38;5054961;28;45717;-60
2022/07/12 03:59:47;;;;;;;;;5.00;4.00;;;;;25.18;45.48;101544.56;5056049;28;45391;-60
2022/07/12 04:02:12;;;;;;;;;3.50;3.25;;;;;25.20;45.52;101563.94;5055918;28;45495;-60
2022/07/12 04:04:38;;;;;;;;;3.00;3.00;;;;;25.09;45.50;101546.34;5054535;28;45341;-61
2022/07/12 04:07:03;;;;;;;;;4.00;3.40;;;;;25.18;45.54;101566.19;5037796;28;45648;-60
2022/07/12 04:09:29;;;;;;;;;6.00;5.00;;;;;25.21;45.41;101571.22;5071360;28;45453;-60
2022/07/12 04:11:54;;;;;;;;;4.25;4.25;;;;;25.02;45.68;101537.38;5054984;28;45478;-60
2022/07/12 04:14:20;;;;;;;;;5.00;5.00;;;;;25.18;45.19;101569.84;5056201;28;45448;-60
2022/07/12 04:16:45;;;;;;;;;3.00;3.00;;;;;25.20;45.36;101572.38;5071543;28;46865;-60
2022/07/12 04:19:11;;;;;;;;;3.50;3.50;;;;;25.12;45.41;101573.81;5044757;28;45399;-61
2022/07/12 04:21:37;;;;;;;;;3.00;3.00;;;;;25.06;45.21;101565.72;5034387;28;45270;-61
2022/07/12 04:24:03;;;;;;;;;5.00;5.00;;;;;25.10;45.45;101578.03;5036079;28;45409;-60
2022/07/12 04:26:28;;;;;;;;;5.00;4.00;;;;;24.97;45.49;101557.09;5034565;28;45691;-60
2022/07/12 04:28:54;;;;;;;;;5.00;5.00;;;;;25.12;45.42;101582.25;5035620;28;45147;-59
2022/07/12 04:31:19;;;;;;;;;2.00;2.00;;;;;25.06;45.23;101579.78;5035617;28;45315;-60
2022/07/12 04:33:45;;;;;;;;;5.00;5.00;;;;;24.90;45.39;101554.56;5035725;28;45499;-60
2022/07/12 04:36:10;;;;;;;;;4.00;4.00;;;;;24.97;45.54;101577.56;5035784;28;46252;-59
2022/07/12 04:38:36;;;;;;;;;4.00;4.00;;;;;24.74;46.14;101554.66;5035364;28;45238;-61
2022/07/12 04:41:01;;;;;;;;;4.50;4.50;;;;;24.82;45.99;101580.47;5034347;28;45323;-60
2022/07/12 04:43:27;;;;;;;;;5.00;5.00;;;;;24.80;46.04;101579.88;5035527;28;45820;-60
2022/07/12 04:45:52;;;;;;;;;4.50;4.50;;;;;24.77;46.55;101575.69;5035261;28;45902;-61
2022/07/12 04:48:18;;;;;;;;;3.50;3.50;;;;;24.84;46.21;101578.19;5035107;28;45179;-61
2022/07/12 04:50:43;;;;;;;;;4.00;4.00;;;;;24.85;46.00;101579.88;5051101;28;45246;-61
2022/07/12 04:53:09;;;;;;;;;5.00;5.00;;;;;24.82;45.96;101577.66;5034219;28;45694;-60
2022/07/12 04:55:35;;;;;;;;;5.60;5.60;;;;;24.81;46.45;101593.63;5035253;28;45757;-61
2022/07/12 04:58:00;;;;;;;;;5.00;5.00;;;;;24.83;46.59;101583.00;5050570;28;45419;-60
2022/07/12 05:00:26;;;;;;;;;4.00;4.00;;;;;24.84;46.40;101587.47;5051170;28;45297;-61
2022/07/12 05:02:51;;;;;;;;;6.25;5.00;;;;;24.87;45.96;101591.66;5050880;28;45543;-60
2022/07/12 05:05:17;;;;;;;;;5.50;4.75;;;;;24.91;46.42;101595.56;5034785;28;45553;-60
2022/07/12 05:07:43;;;;;;;;;6.25;5.25;;;;;24.97;45.89;101593.56;5035482;28;45444;-61
2022/07/12 05:10:08;;;;;;;;;5.40;5.40;;;;;25.04;45.96;101600.53;5052717;28;45309;-60
2022/07/12 05:12:34;;;;;;;;;6.00;6.00;;;;;25.04;46.05;101594.91;5053874;28;45586;-61
2022/07/12 05:15:00;;;;;;;;;3.00;3.00;;;;;25.08;45.89;101599.97;5036888;28;46637;-60
2022/07/12 05:17:25;;;;;;;;;5.00;5.00;;;;;25.13;45.94;101612.00;5036959;28;45480;-61
2022/07/12 05:19:51;;;;;;;;;4.25;4.25;;;;;24.96;45.69;101575.88;5038216;28;45311;-61
2022/07/12 05:22:16;;;;;;;;;2.00;2.00;;;;;25.12;46.19;101615.09;5038163;28;45289;-59
2022/07/12 05:24:42;;;;;;;;;5.75;5.75;;;;;25.09;45.46;101608.09;5020898;28;46466;-60
2022/07/12 05:27:07;;;;;;;;;4.00;3.25;;;;;25.00;45.80;101588.22;5058395;28;45289;-58
2022/07/12 05:29:33;;;;;;;;;6.75;5.50;;;;;25.23;45.89;101619.53;5058327;28;45308;-62
2022/07/12 05:31:58;;;;;;;;;4.50;3.75;;;;;24.97;45.87;101588.78;5057938;28;45594;-62
2022/07/12 05:34:24;;;;;;;;;7.25;7.25;;;;;25.22;45.94;101606.63;5058030;28;46461;-61
2022/07/12 05:36:49;;;;;;;;;9.25;7.75;;;;;25.15;45.64;101589.25;5056676;28;45840;-62
2022/07/12 05:39:15;;;;;;;;;7.25;6.00;;;;;25.36;45.18;101618.03;5057072;28;45479;-59
2022/07/12 05:41:40;;;;;;;;;7.00;6.00;;;;;25.41;45.65;101632.03;5058052;28;45576;-60
2022/07/12 05:44:05;;;;;;;;;6.75;6.75;;;;;25.19;45.00;101601.59;5057782;28;45678;-60
2022/07/12 05:46:31;;;;;;;;;7.75;7.25;;;;;25.38;45.68;101628.97;5058139;28;45463;-60
2022/07/12 05:48:57;;;;;;;;;7.00;6.00;;;;;25.30;45.43;101627.63;5057718;28;45379;-62
2022/07/12 05:54:06;;;;;;;;;8.00;8.00;;;;;25.04;46.22;101603.34;5057665;28;45473;-61
2022/07/12 05:56:32;;;;;;;;;8.75;7.00;;;;;25.10;46.25;101615.41;5058102;28;45431;-67
2022/07/12 05:58:58;;;;;;;;;6.25;6.00;;;;;25.14;46.08;101641.75;5057323;28;45258;-61
2022/07/12 06:01:24;;;;;;;;;8.00;8.00;;;;;25.03;46.46;101642.97;4990334;27;45661;-60
2022/07/12 06:03:49;;;;;;;;;8.25;6.75;;;;;24.85;46.39;101614.41;5077119;28;45634;-60
2022/07/12 06:06:15;;;;;;;;;7.25;7.25;;;;;25.09;46.39;101649.38;5076535;28;45311;-60
2022/07/12 06:08:41;;;;;;;;;9.00;7.75;;;;;25.00;46.09;101626.69;5093661;27;45388;-61
2022/07/12 06:11:06;;;;;;;;;8.00;8.00;;;;;25.07;46.11;101640.41;5077213;28;45268;-60
2022/07/12 06:13:32;;;;;;;;;8.75;8.00;;;;;24.96;45.93;101632.03;5076504;28;48730;-59
2022/07/12 06:15:57;;;;;;;;;8.50;8.25;;;;;25.04;46.99;101653.88;5077825;28;45230;-60
2022/07/12 06:18:22;;;;;;;;;7.00;7.00;;;;;24.99;45.99;101634.28;5076450;27;45397;-59
2022/07/12 06:20:48;;;;;;;;;6.50;6.50;;;;;24.93;45.95;101627.00;5057554;28;45330;-59
2022/07/12 06:23:13;;;;;;;;;7.75;7.75;;;;;25.06;46.48;101648.00;5057560;28;45624;-59
2022/07/12 06:25:40;;;;;;;;;10.25;8.00;;;;;25.12;46.20;101660.03;5033724;28;45610;-55
2022/07/12 06:28:05;;;;;;;;;8.40;8.00;;;;;24.88;46.82;101618.59;5056754;28;45413;-56
2022/07/12 06:30:30;;;;;;;;;8.50;7.50;;;;;24.99;46.21;101634.28;5057636;28;45515;-56
2022/07/12 06:32:56;;;;;;;;;7.75;7.75;;;;;25.17;46.21;101643.16;5055853;28;46535;-58
2022/07/12 06:35:22;;;;;;;;;11.50;10.75;;;;;25.10;46.24;101660.34;5057443;28;45292;-58
2022/07/12 06:37:47;;;;;;;;;11.00;8.00;;;;;25.15;46.02;101660.31;5057744;28;45408;-54
2022/07/12 06:40:16;;;;;;;;;9.00;7.00;;;;;25.03;46.57;101643.78;5057732;28;45367;-57
2022/07/12 06:42:42;;;;;;;;;9.20;9.20;;;;;25.10;46.26;101654.72;5057091;28;46500;-55
2022/07/12 06:45:09;;;;;;;;;9.00;9.00;;;;;25.09;46.55;101658.66;5056311;28;45392;-58
2022/07/12 06:47:34;;;;;;;;;9.60;9.40;;;;;24.94;45.78;101620.25;5057541;28;45436;-57
2022/07/12 06:50:00;;;;;;;;;9.00;7.75;;;;;24.98;46.42;101637.38;5057432;28;45428;-58
2022/07/12 06:52:25;;;;;;;;;8.75;7.50;;;;;25.10;46.48;101665.09;5056163;28;46485;-53
2022/07/12 06:54:51;;;;;;;;;8.50;8.25;;;;;24.88;46.58;101630.66;5055737;28;45489;-53
2022/07/12 06:57:16;;;;;;;;;8.75;8.75;;;;;25.07;46.49;101660.88;5057112;28;45246;-60
2022/07/12 06:59:42;;;;;;;;;10.25;10.00;;;;;24.83;46.21;101636.31;5057223;28;45416;-56
2022/07/12 07:02:07;;;;;;;;;10.00;9.00;;;;;25.04;46.83;101667.91;5057078;28;46064;-59
2022/07/12 07:04:33;;;;;;;;;9.00;9.00;;;;;24.93;46.89;101657.88;5057139;28;45396;-59
2022/07/12 07:06:58;;;;;;;;;9.50;8.00;;;;;24.99;46.91;101667.13;5056834;28;45423;-60
2022/07/12 07:09:23;;;;;;;;;7.25;7.25;;;;;25.07;46.27;101672.13;5055811;28;45965;-59
2022/07/12 07:11:49;;;;;;;;;7.75;7.00;;;;;25.14;46.73;101667.03;5056581;28;45974;-60
2022/07/12 07:14:14;;;;;;;;;8.00;8.00;;;;;25.23;46.44;101670.06;5055105;28;45235;-59
2022/07/12 07:16:40;;;;;;;;;9.00;9.00;;;;;25.25;46.43;101665.03;5057042;28;45227;-62
2022/07/12 07:19:05;;;;;;;;;9.50;8.75;;;;;25.35;46.43;101671.69;5056967;28;45558;-60
2022/07/12 07:21:31;;;;;;;;;9.25;9.25;;;;;25.39;46.13;101673.63;5056657;28;45347;-60
2022/07/12 07:23:57;;;;;;;;;9.75;8.50;;;;;25.39;45.88;101670.81;5014775;28;45681;-59
2022/07/12 07:26:22;;;;;;;;;9.50;9.25;;;;;25.07;46.16;101615.13;5029543;28;45619;-61
2022/07/12 07:31:36;;;;;;;;;14.80;10.80;;;;;25.45;45.89;101671.63;5047521;28;45883;-64
2022/07/12 07:34:02;;;;;;;;;19.60;14.60;;;;;25.39;45.76;101648.34;5048996;28;45446;-62
2022/07/12 07:36:27;;;;;;;;;15.40;12.00;;;;;25.56;45.60;101673.28;5044093;28;45500;-62
2022/07/12 07:38:53;;;;;;;;;11.25;11.25;;;;;25.39;45.52;101641.91;5046087;28;45722;-63
2022/07/12 07:41:18;;;;;;;;;9.50;8.25;;;;;25.31;45.51;101621.69;5079339;27;45879;-60
2022/07/12 07:43:44;;;;;;;;;11.25;9.00;;;;;25.74;45.97;101676.53;5058490;28;45801;-63
2022/07/12 07:46:09;;;;;;;;;14.00;9.75;;;;;25.75;45.28;101663.28;5053445;28;45461;-61
2022/07/12 07:48:35;;;;;;;;;10.50;9.25;;;;;25.71;45.72;101668.66;5070767;28;45425;-64
2022/07/12 07:51:00;;;;;;;;;9.75;9.75;;;;;25.76;45.76;101670.63;5072095;27;46125;-62
2022/07/12 07:53:26;;;;;;;;;10.00;8.50;;;;;25.55;45.34;101649.13;5065517;27;45467;-65
2022/07/12 07:55:51;;;;;;;;;9.50;9.50;;;;;25.73;45.45;101666.41;5057356;28;45965;-61
2022/07/12 07:58:17;;;;;;;;;11.50;11.25;;;;;25.78;45.28;101677.59;5067182;28;46008;-64
2022/07/12 08:00:42;;;;;;;;;9.50;9.50;;;;;25.87;45.03;101682.63;5078003;27;45879;-63
2022/07/12 08:03:08;;;;;;;;;9.00;9.00;;;;;25.66;44.76;101627.38;5085540;27;45455;-62
2022/07/12 08:05:33;;;;;;;;;10.00;10.00;;;;;25.84;44.31;101653.94;5067150;28;46139;-66
2022/07/12 08:07:59;;;;;;;;;14.25;10.50;;;;;26.03;44.38;101686.97;5069100;28;45460;-62
2022/07/12 08:10:25;;;;;;;;;10.50;10.50;;;;;26.09;44.50;101680.16;5085175;27;45570;-60
2022/07/12 08:12:50;;;;;;;;;8.20;8.20;;;;;26.03;44.61;101660.81;5069691;27;45418;-60
2022/07/12 08:15:16;;;;;;;;;7.00;7.00;;;;;26.22;44.12;101683.44;5071852;27;45524;-59
2022/07/12 08:17:41;;;;;;;;;8.75;8.75;;;;;26.35;44.28;101682.75;5087794;27;45811;-61
2022/07/12 08:20:07;;;;;;;;;11.00;10.00;;;;;26.42;43.90;101690.00;5068539;28;45862;-60
2022/07/12 08:22:33;;;;;;;;;8.50;7.50;;;;;26.42;43.62;101688.03;5043935;27;45549;-61
2022/07/12 08:24:59;;;;;;;;;8.40;8.40;;;;;26.49;43.37;101687.69;5063318;27;45841;-59
2022/07/12 08:27:24;;;;;;;;;6.75;4.00;;;;;26.57;43.64;101695.47;5065142;28;45480;-61
2022/07/12 08:29:50;;;;;;;;;9.75;9.75;;;;;26.54;43.15;101684.81;5051922;28;46039;-58
2022/07/12 08:32:15;;;;;;;;;9.75;9.00;;;;;26.57;43.06;101687.03;5051792;28;45436;-59
2022/07/12 08:34:41;;;;;;;;;9.50;9.25;;;;;26.64;43.24;101693.13;5051620;28;45499;-58
2022/07/12 08:37:06;;;;;;;;;12.00;8.00;;;;;26.70;43.33;101690.25;5051891;28;45361;-60
2022/07/12 08:39:32;;;;;;;;;8.25;7.25;;;;;26.75;42.72;101681.75;5049836;28;45580;-61
2022/07/12 08:41:57;;;;;;;;;8.50;8.50;;;;;26.62;42.36;101650.38;5066180;28;45436;-60
2022/07/12 08:44:23;;;;;;;;;10.00;9.00;;;;;26.86;42.68;101685.28;5085735;27;45477;-57
2022/07/12 08:46:48;;;;;;;;;9.50;8.25;;;;;26.92;42.96;101682.16;5048507;28;45980;-59
2022/07/12 08:49:14;;;;;;;;;6.75;6.75;;;;;26.80;42.64;101653.56;5052630;28;46667;-59
2022/07/12 08:51:39;;;;;;;;;7.25;6.00;;;;;26.77;41.92;101635.28;5052305;28;45560;-61
2022/07/12 08:54:12;;;;;;;;;8.75;7.00;;;;;26.95;41.45;101660.16;5052196;28;45812;-55
2022/07/12 08:56:39;;;;;;;;;7.00;5.20;;;;;27.25;41.57;101689.06;5038067;28;45666;-61
2022/07/12 08:59:10;;;;;;;;;7.60;5.40;;;;;27.12;41.45;101656.81;5074021;27;45904;-62
2022/07/12 09:01:49;;;;;;;;;5.00;4.00;;;;;27.26;40.47;101680.28;5064131;27;45474;-62
2022/07/12 09:04:22;;;;;;;;;5.80;4.80;;;;;27.38;40.45;101684.63;5053204;28;45499;-59
2022/07/12 09:06:48;;;;;;;;;4.80;4.80;;;;;27.48;40.65;101690.13;5035922;28;45771;-61
2022/07/12 09:09:30;;;;;;;;;9.00;8.00;;;;;27.33;40.39;101648.91;5068503;28;46721;-62
2022/07/12 09:11:56;;;;;;;;;6.40;6.20;;;;;27.60;40.77;101672.78;5055583;28;45776;-60
2022/07/12 09:14:22;;;;;;;;;8.00;6.50;;;;;27.56;40.32;101651.94;5090363;27;45824;-62
2022/07/12 09:17:04;;;;;;;;;7.00;5.75;;;;;27.81;39.59;101686.53;5073572;28;45794;-62
2022/07/12 09:19:30;;;;;;;;;5.20;5.20;;;;;27.82;39.52;101691.88;5067433;28;46390;-60
2022/07/12 09:21:55;;;;;;;;;8.50;8.00;;;;;27.85;39.61;101687.59;5072069;28;45326;-59
2022/07/12 09:24:25;;;;;;;;;5.25;4.50;;;;;27.90;38.34;101686.69;5067966;27;48142;-61
2022/07/12 09:26:57;;;;;;;;;5.00;5.00;;;;;27.95;37.51;101690.25;5077294;27;46413;-61
2022/07/12 09:29:23;;;;;;;;;5.00;5.00;;;;;27.94;36.37;101677.28;5085528;27;45749;-60
2022/07/12 09:37:17;;;;;;;;;5.80;5.60;;;;;28.04;36.55;101670.63;5072413;28;45429;-60
2022/07/12 09:39:43;;;;;;;;;3.00;3.00;;;;;28.01;36.98;101666.44;5070936;28;48336;-59
2022/07/12 09:42:10;;;;;;;;;5.75;4.50;;;;;28.09;36.49;101687.47;5071328;28;45461;-60
2022/07/12 09:44:35;;;;;;;;;5.80;5.80;;;;;28.00;37.31;101666.75;5058407;28;45868;-59
2022/07/12 09:47:01;;;;;;;;;3.00;3.00;;;;;28.19;36.54;101685.59;5088901;27;45893;-61
2022/07/12 09:49:27;;;;;;;;;3.50;3.50;;;;;28.20;36.27;101685.28;5088871;27;46885;-60
2022/07/12 09:51:56;;;;;;;;;4.25;4.00;;;;;28.23;36.60;101686.69;5071124;28;45417;-61
2022/07/12 09:54:29;;;;;;;;;5.20;5.20;;;;;28.30;36.28;101691.91;5087925;27;45921;-63
2022/07/12 09:56:55;;;;;;;;;4.00;3.60;;;;;28.34;35.46;101695.81;5033073;28;45528;-59
2022/07/12 09:59:23;;;;;;;;;4.00;4.00;;;;;28.30;35.92;101683.47;5033807;28;45389;-58
2022/07/12 10:01:49;;;;;;;;;5.00;5.00;;;;;28.36;36.28;101690.69;5045293;28;45452;-61
2022/07/12 10:04:15;;;;;;;;;3.40;3.00;;;;;28.43;36.24;101696.75;5051400;28;45523;-57
2022/07/12 10:06:40;;;;;;;;;5.00;4.25;;;;;28.47;35.45;101695.00;5051711;28;45457;-59
2022/07/12 10:09:06;;;;;;;;;4.25;4.25;;;;;28.24;34.88;101646.88;5057781;28;45534;-61
2022/07/12 10:11:31;;;;;;;;;4.25;4.25;;;;;28.46;34.66;101679.22;5072876;27;45768;-58
2022/07/12 10:13:57;;;;;;;;;5.25;5.25;;;;;28.66;34.13;101694.06;5074786;27;45838;-61
2022/07/12 10:16:29;;;;;;;;;4.00;4.00;;;;;28.71;35.13;101693.97;5052337;28;45531;-60
2022/07/12 10:19:25;;;;;;;;;4.80;4.00;;;;;28.79;35.63;101698.03;5051595;28;45527;-59
2022/07/12 10:21:54;;;;;;;;;6.40;6.40;;;;;28.87;34.80;101686.03;5059022;28;45490;-60
2022/07/12 10:24:44;;;;;;;;;7.40;4.60;;;;;28.92;34.69;101688.75;5059206;28;45804;-62
2022/07/12 10:27:15;;;;;;;;;5.00;5.00;;;;;28.98;34.19;101692.31;5067379;28;45491;-58
2022/07/12 10:29:41;;;;;;;;;7.20;6.20;;;;;28.96;33.85;101686.13;5073367;28;45737;-60
2022/07/12 10:32:19;;;;;;;;;4.00;4.00;;;;;29.04;33.98;101682.59;5063374;28;45431;-62
2022/07/12 10:34:55;;;;;;;;;5.00;5.00;;;;;29.07;33.74;101684.75;5071944;28;45974;-59
2022/07/12 10:37:21;;;;;;;;;4.80;4.80;;;;;29.17;34.58;101683.69;5072450;28;45479;-62
2022/07/12 10:40:11;;;;;;;;;4.25;4.25;;;;;29.30;33.51;101681.97;5071925;28;45818;-63
2022/07/12 10:42:37;;;;;;;;;6.20;4.40;;;;;29.35;33.23;101684.69;5072722;28;45751;-60
2022/07/12 10:45:13;;;;;;;;;5.50;5.50;;;;;29.33;32.54;101680.50;5070633;27;45405;-58
2022/07/12 10:47:58;;;;;;;;;4.40;3.20;;;;;29.32;33.14;101673.19;5072380;28;45922;-60
2022/07/12 10:53:40;;;;;;;;;4.60;3.60;;;;;29.42;32.26;101677.75;5072714;28;45364;-59
2022/07/12 10:56:07;;;;;;;;;3.00;3.00;;;;;29.37;32.02;101661.78;5051048;27;45432;-61
2022/07/12 10:58:34;;;;;;;;;5.20;5.00;;;;;29.36;32.06;101655.28;5055352;28;45653;-60
2022/07/12 11:01:04;;;;;;;;;4.20;4.20;;;;;29.39;31.08;101645.31;5072783;27;46792;-58
2022/07/12 11:03:53;;;;;;;;;4.20;4.20;;;;;29.59;30.95;101675.13;5088049;27;45570;-54
2022/07/12 11:06:20;;;;;;;;;2.80;2.80;;;;;29.63;30.11;101659.19;5083598;27;45470;-60
2022/07/12 11:09:04;;;;;;;;;4.00;2.60;;;;;29.78;29.37;101676.09;5054423;28;45609;-56
2022/07/12 11:11:31;;;;;;;;;4.00;4.00;;;;;29.82;29.67;101660.97;5056622;28;46410;-57
2022/07/12 11:13:58;;;;;;;;;4.00;3.00;;;;;29.99;29.36;101673.59;5055311;28;45192;-60
2022/07/12 11:16:24;;;;;;;;;5.00;5.00;;;;;30.02;29.62;101672.94;5056729;28;45302;-55
2022/07/12 11:18:49;;;;;;;;;4.00;4.00;;;;;30.14;30.21;101663.88;5055881;28;45302;-60
2022/07/12 11:21:15;;;;;;;;;5.25;4.00;;;;;30.18;28.86;101664.91;5038126;28;46834;-59
2022/07/12 11:23:41;;;;;;;;;4.00;4.00;;;;;30.25;29.20;101664.44;5056880;28;45249;-61
2022/07/12 11:26:06;;;;;;;;;5.75;4.75;;;;;30.35;28.96;101669.00;5072155;28;45471;-58
2022/07/12 11:28:32;;;;;;;;;4.75;4.75;;;;;30.42;29.43;101673.00;5072509;28;45586;-58
2022/07/12 11:31:13;;;;;;;;;4.00;4.00;;;;;30.42;29.33;101669.34;5056576;28;46391;-60
2022/07/12 11:33:41;;;;;;;;;4.20;4.20;;;;;30.46;29.17;101663.88;5055288;28;45441;-59
2022/07/12 11:36:08;;;;;;;;;7.00;5.00;;;;;30.48;28.77;101658.72;5056678;28;45374;-60